sensor_id;sensor_type;location;lat;lon;timestamp;P1;durP1;ratioP1;P2;durP2;ratioP2
17650;SDS011;26663;59.302;18.082;2022-08-04T00:00:26;9.55;;;4.20;;
17650;SDS011;26663;59.302;18.082;2022-08-04T00:03:41;9.10;;;4.00;;
17650;SDS011;26663;59.302;18.082;2022-08-04T00:06:53;6.13;;;4.00;;
17650;SDS011;26663;59.302;18.082;2022-08-04T00:10:04;15.02;;;3.90;;
17650;SDS011;26663;59.302;18.082;2022-08-04T00:13:12;6.57;;;3.90;;
17650;SDS011;26663;59.302;18.082;2022-08-04T00:16:17;8.90;;;3.72;;
17650;SDS011;26663;59.302;18.082;2022-08-04T00:19:28;18.67;;;4.70;;
17650;SDS011;26663;59.302;18.082;2022-08-04T00:22:37;9.63;;;4.00;;
17650;SDS011;26663;59.302;18.082;2022-08-04T00:25:44;11.13;;;4.57;;
17650;SDS011;26663;59.302;18.082;2022-08-04T00:28:49;10.88;;;4.65;;
17650;SDS011;26663;59.302;18.082;2022-08-04T00:31:55;11.55;;;3.70;;
17650;SDS011;26663;59.302;18.082;2022-08-04T00:35:02;6.47;;;4.18;;
17650;SDS011;26663;59.302;18.082;2022-08-04T00:38:09;12.07;;;3.80;;
17650;SDS011;26663;59.302;18.082;2022-08-04T00:41:18;9.60;;;3.80;;
17650;SDS011;26663;59.302;18.082;2022-08-04T00:44:34;7.60;;;3.80;;
17650;SDS011;26663;59.302;18.082;2022-08-04T00:47:55;10.70;;;3.85;;
17650;SDS011;26663;59.302;18.082;2022-08-04T00:51:18;10.20;;;3.75;;
17650;SDS011;26663;59.302;18.082;2022-08-04T00:54:33;10.07;;;4.05;;
17650;SDS011;26663;59.302;18.082;2022-08-04T00:57:51;17.17;;;3.92;;
17650;SDS011;26663;59.302;18.082;2022-08-04T01:01:17;9.82;;;3.90;;
17650;SDS011;26663;59.302;18.082;2022-08-04T01:04:39;13.07;;;3.85;;
17650;SDS011;26663;59.302;18.082;2022-08-04T01:07:59;8.98;;;3.75;;
17650;SDS011;26663;59.302;18.082;2022-08-04T01:11:18;10.52;;;4.38;;
17650;SDS011;26663;59.302;18.082;2022-08-04T01:14:36;8.38;;;3.67;;
17650;SDS011;26663;59.302;18.082;2022-08-04T01:17:58;6.65;;;3.72;;
17650;SDS011;26663;59.302;18.082;2022-08-04T01:21:16;6.57;;;4.13;;
17650;SDS011;26663;59.302;18.082;2022-08-04T01:25:00;5.25;;;3.90;;
17650;SDS011;26663;59.302;18.082;2022-08-04T01:28:27;14.32;;;3.88;;
17650;SDS011;26663;59.302;18.082;2022-08-04T01:31:58;6.93;;;4.20;;
17650;SDS011;26663;59.302;18.082;2022-08-04T01:35:07;4.32;;;3.58;;
17650;SDS011;26663;59.302;18.082;2022-08-04T01:38:38;8.35;;;4.32;;
17650;SDS011;26663;59.302;18.082;2022-08-04T01:41:44;7.85;;;3.97;;
17650;SDS011;26663;59.302;18.082;2022-08-04T01:45:01;8.32;;;3.88;;
17650;SDS011;26663;59.302;18.082;2022-08-04T01:48:14;8.25;;;3.92;;
17650;SDS011;26663;59.302;18.082;2022-08-04T01:51:20;6.53;;;3.88;;
17650;SDS011;26663;59.302;18.082;2022-08-04T01:54:26;13.10;;;4.40;;
17650;SDS011;26663;59.302;18.082;2022-08-04T01:57:33;13.02;;;4.47;;
17650;SDS011;26663;59.302;18.082;2022-08-04T02:00:42;11.80;;;4.13;;
17650;SDS011;26663;59.302;18.082;2022-08-04T02:04:01;4.93;;;4.15;;
17650;SDS011;26663;59.302;18.082;2022-08-04T02:07:27;5.88;;;4.60;;
17650;SDS011;26663;59.302;18.082;2022-08-04T02:10:56;6.65;;;4.05;;
17650;SDS011;26663;59.302;18.082;2022-08-04T02:14:10;6.72;;;3.95;;
17650;SDS011;26663;59.302;18.082;2022-08-04T02:17:44;7.68;;;4.15;;
17650;SDS011;26663;59.302;18.082;2022-08-04T02:21:10;4.20;;;3.90;;
17650;SDS011;26663;59.302;18.082;2022-08-04T02:24:19;11.38;;;4.18;;
17650;SDS011;26663;59.302;18.082;2022-08-04T02:27:27;10.07;;;4.05;;
17650;SDS011;26663;59.302;18.082;2022-08-04T02:30:58;10.60;;;4.07;;
17650;SDS011;26663;59.302;18.082;2022-08-04T02:34:14;8.82;;;4.05;;
17650;SDS011;26663;59.302;18.082;2022-08-04T02:37:24;6.43;;;3.72;;
17650;SDS011;26663;59.302;18.082;2022-08-04T02:40:30;5.97;;;3.45;;
17650;SDS011;26663;59.302;18.082;2022-08-04T02:43:35;5.22;;;3.90;;
17650;SDS011;26663;59.302;18.082;2022-08-04T02:46:54;5.07;;;3.53;;
17650;SDS011;26663;59.302;18.082;2022-08-04T02:50:00;5.82;;;3.35;;
17650;SDS011;26663;59.302;18.082;2022-08-04T02:53:08;4.07;;;3.70;;
17650;SDS011;26663;59.302;18.082;2022-08-04T02:56:17;6.13;;;3.97;;
17650;SDS011;26663;59.302;18.082;2022-08-04T02:59:24;4.80;;;3.97;;
17650;SDS011;26663;59.302;18.082;2022-08-04T03:02:32;3.90;;;3.40;;
17650;SDS011;26663;59.302;18.082;2022-08-04T03:05:52;4.20;;;3.63;;
17650;SDS011;26663;59.302;18.082;2022-08-04T03:09:34;3.85;;;3.55;;
17650;SDS011;26663;59.302;18.082;2022-08-04T03:17:17;6.20;;;3.78;;
17650;SDS011;26663;59.302;18.082;2022-08-04T03:24:56;5.43;;;3.72;;
17650;SDS011;26663;59.302;18.082;2022-08-04T03:40:24;5.70;;;3.42;;
17650;SDS011;26663;59.302;18.082;2022-08-04T03:44:00;5.90;;;3.28;;
17650;SDS011;26663;59.302;18.082;2022-08-04T03:47:36;3.30;;;3.10;;
17650;SDS011;26663;59.302;18.082;2022-08-04T03:51:24;3.90;;;3.42;;
17650;SDS011;26663;59.302;18.082;2022-08-04T03:58:47;3.22;;;2.90;;
17650;SDS011;26663;59.302;18.082;2022-08-04T04:02:09;3.28;;;3.00;;
17650;SDS011;26663;59.302;18.082;2022-08-04T04:05:56;3.67;;;3.35;;
17650;SDS011;26663;59.302;18.082;2022-08-04T04:09:55;5.40;;;2.80;;
17650;SDS011;26663;59.302;18.082;2022-08-04T04:21:09;8.02;;;3.22;;
17650;SDS011;26663;59.302;18.082;2022-08-04T04:24:39;5.60;;;3.10;;
17650;SDS011;26663;59.302;18.082;2022-08-04T04:28:10;3.65;;;3.00;;
17650;SDS011;26663;59.302;18.082;2022-08-04T04:31:55;4.43;;;2.80;;
17650;SDS011;26663;59.302;18.082;2022-08-04T04:35:09;3.83;;;2.70;;
17650;SDS011;26663;59.302;18.082;2022-08-04T04:38:33;5.93;;;2.97;;
17650;SDS011;26663;59.302;18.082;2022-08-04T04:42:14;4.93;;;3.20;;
17650;SDS011;26663;59.302;18.082;2022-08-04T04:45:39;4.28;;;3.00;;
17650;SDS011;26663;59.302;18.082;2022-08-04T04:48:57;3.75;;;3.28;;
17650;SDS011;26663;59.302;18.082;2022-08-04T04:52:08;10.73;;;3.47;;
17650;SDS011;26663;59.302;18.082;2022-08-04T04:55:20;6.38;;;2.80;;
17650;SDS011;26663;59.302;18.082;2022-08-04T04:58:30;7.10;;;3.03;;
17650;SDS011;26663;59.302;18.082;2022-08-04T05:05:41;3.88;;;3.10;;
17650;SDS011;26663;59.302;18.082;2022-08-04T05:09:19;8.80;;;3.00;;
17650;SDS011;26663;59.302;18.082;2022-08-04T05:12:36;6.20;;;3.13;;
17650;SDS011;26663;59.302;18.082;2022-08-04T05:16:17;4.82;;;2.90;;
17650;SDS011;26663;59.302;18.082;2022-08-04T05:19:26;5.30;;;3.17;;
17650;SDS011;26663;59.302;18.082;2022-08-04T05:22:41;4.57;;;3.13;;
17650;SDS011;26663;59.302;18.082;2022-08-04T05:25:51;5.32;;;3.00;;
17650;SDS011;26663;59.302;18.082;2022-08-04T05:29:02;5.40;;;3.67;;
17650;SDS011;26663;59.302;18.082;2022-08-04T05:32:14;5.93;;;2.72;;
17650;SDS011;26663;59.302;18.082;2022-08-04T05:35:21;5.05;;;2.83;;
17650;SDS011;26663;59.302;18.082;2022-08-04T05:38:54;5.05;;;3.42;;
17650;SDS011;26663;59.302;18.082;2022-08-04T05:42:02;3.13;;;2.58;;
17650;SDS011;26663;59.302;18.082;2022-08-04T05:45:09;4.53;;;2.80;;
17650;SDS011;26663;59.302;18.082;2022-08-04T05:48:15;3.35;;;3.13;;
17650;SDS011;26663;59.302;18.082;2022-08-04T05:51:21;6.47;;;2.60;;
17650;SDS011;26663;59.302;18.082;2022-08-04T05:54:29;6.40;;;3.13;;
17650;SDS011;26663;59.302;18.082;2022-08-04T05:57:36;9.05;;;3.20;;
17650;SDS011;26663;59.302;18.082;2022-08-04T06:00:43;3.40;;;2.70;;
17650;SDS011;26663;59.302;18.082;2022-08-04T06:03:54;4.90;;;2.90;;
17650;SDS011;26663;59.302;18.082;2022-08-04T06:07:00;6.38;;;2.80;;
17650;SDS011;26663;59.302;18.082;2022-08-04T06:10:07;6.20;;;2.65;;
17650;SDS011;26663;59.302;18.082;2022-08-04T06:13:16;2.65;;;2.22;;
17650;SDS011;26663;59.302;18.082;2022-08-04T06:16:44;3.00;;;2.90;;
17650;SDS011;26663;59.302;18.082;2022-08-04T06:19:54;3.42;;;2.53;;
17650;SDS011;26663;59.302;18.082;2022-08-04T06:23:19;4.72;;;2.40;;
17650;SDS011;26663;59.302;18.082;2022-08-04T06:26:28;3.40;;;2.60;;
17650;SDS011;26663;59.302;18.082;2022-08-04T06:29:34;4.13;;;2.20;;
17650;SDS011;26663;59.302;18.082;2022-08-04T06:32:42;4.25;;;2.20;;
17650;SDS011;26663;59.302;18.082;2022-08-04T06:36:08;4.10;;;2.50;;
17650;SDS011;26663;59.302;18.082;2022-08-04T06:39:16;4.20;;;3.50;;
17650;SDS011;26663;59.302;18.082;2022-08-04T06:42:25;2.78;;;2.22;;
17650;SDS011;26663;59.302;18.082;2022-08-04T06:45:30;2.40;;;2.20;;
17650;SDS011;26663;59.302;18.082;2022-08-04T06:48:38;5.53;;;2.30;;
17650;SDS011;26663;59.302;18.082;2022-08-04T06:51:43;4.13;;;2.55;;
17650;SDS011;26663;59.302;18.082;2022-08-04T06:54:51;5.53;;;2.20;;
17650;SDS011;26663;59.302;18.082;2022-08-04T06:58:00;4.63;;;2.13;;
17650;SDS011;26663;59.302;18.082;2022-08-04T07:01:06;4.75;;;2.28;;
17650;SDS011;26663;59.302;18.082;2022-08-04T07:04:11;6.00;;;2.30;;
17650;SDS011;26663;59.302;18.082;2022-08-04T07:07:16;3.60;;;2.03;;
17650;SDS011;26663;59.302;18.082;2022-08-04T07:10:38;4.63;;;1.80;;
17650;SDS011;26663;59.302;18.082;2022-08-04T07:13:45;5.35;;;2.30;;
17650;SDS011;26663;59.302;18.082;2022-08-04T07:16:52;2.60;;;1.92;;
17650;SDS011;26663;59.302;18.082;2022-08-04T07:19:58;2.92;;;2.00;;
17650;SDS011;26663;59.302;18.082;2022-08-04T07:23:03;3.50;;;1.90;;
17650;SDS011;26663;59.302;18.082;2022-08-04T07:26:11;1.63;;;1.63;;
17650;SDS011;26663;59.302;18.082;2022-08-04T07:29:19;2.95;;;1.73;;
17650;SDS011;26663;59.302;18.082;2022-08-04T07:32:24;1.85;;;1.75;;
17650;SDS011;26663;59.302;18.082;2022-08-04T07:35:31;2.10;;;1.80;;
17650;SDS011;26663;59.302;18.082;2022-08-04T07:38:56;4.78;;;2.00;;
17650;SDS011;26663;59.302;18.082;2022-08-04T07:42:03;3.63;;;1.88;;
17650;SDS011;26663;59.302;18.082;2022-08-04T07:45:11;3.03;;;1.92;;
17650;SDS011;26663;59.302;18.082;2022-08-04T07:48:16;2.00;;;1.90;;
17650;SDS011;26663;59.302;18.082;2022-08-04T07:51:24;4.38;;;2.30;;
17650;SDS011;26663;59.302;18.082;2022-08-04T07:54:32;3.03;;;2.20;;
17650;SDS011;26663;59.302;18.082;2022-08-04T07:57:37;1.90;;;1.75;;
17650;SDS011;26663;59.302;18.082;2022-08-04T08:00:45;2.17;;;2.05;;
17650;SDS011;26663;59.302;18.082;2022-08-04T08:03:51;3.35;;;1.75;;
17650;SDS011;26663;59.302;18.082;2022-08-04T08:06:58;1.95;;;1.63;;
17650;SDS011;26663;59.302;18.082;2022-08-04T08:10:04;1.70;;;1.67;;
17650;SDS011;26663;59.302;18.082;2022-08-04T08:13:12;6.20;;;1.75;;
17650;SDS011;26663;59.302;18.082;2022-08-04T08:16:20;2.20;;;2.10;;
17650;SDS011;26663;59.302;18.082;2022-08-04T08:19:27;2.53;;;2.17;;
17650;SDS011;26663;59.302;18.082;2022-08-04T08:22:32;2.88;;;1.80;;
17650;SDS011;26663;59.302;18.082;2022-08-04T08:25:38;1.85;;;1.75;;
17650;SDS011;26663;59.302;18.082;2022-08-04T08:28:43;9.95;;;2.20;;
17650;SDS011;26663;59.302;18.082;2022-08-04T08:31:50;2.53;;;1.70;;
17650;SDS011;26663;59.302;18.082;2022-08-04T08:35:00;2.40;;;1.80;;
17650;SDS011;26663;59.302;18.082;2022-08-04T08:38:05;4.03;;;1.70;;
17650;SDS011;26663;59.302;18.082;2022-08-04T08:49:10;2.53;;;1.90;;
17650;SDS011;26663;59.302;18.082;2022-08-04T08:53:01;2.95;;;2.00;;
17650;SDS011;26663;59.302;18.082;2022-08-04T08:56:21;3.40;;;1.92;;
17650;SDS011;26663;59.302;18.082;2022-08-04T08:59:46;2.70;;;1.77;;
17650;SDS011;26663;59.302;18.082;2022-08-04T09:03:09;1.80;;;1.63;;
17650;SDS011;26663;59.302;18.082;2022-08-04T09:06:42;2.80;;;1.73;;
17650;SDS011;26663;59.302;18.082;2022-08-04T09:10:11;3.97;;;1.73;;
17650;SDS011;26663;59.302;18.082;2022-08-04T09:13:23;1.70;;;1.60;;
17650;SDS011;26663;59.302;18.082;2022-08-04T09:16:37;2.92;;;1.60;;
17650;SDS011;26663;59.302;18.082;2022-08-04T09:19:50;3.67;;;1.90;;
17650;SDS011;26663;59.302;18.082;2022-08-04T09:23:07;2.88;;;1.70;;
17650;SDS011;26663;59.302;18.082;2022-08-04T09:26:25;1.83;;;1.48;;
17650;SDS011;26663;59.302;18.082;2022-08-04T09:29:36;1.40;;;1.40;;
17650;SDS011;26663;59.302;18.082;2022-08-04T09:32:51;1.45;;;1.45;;
17650;SDS011;26663;59.302;18.082;2022-08-04T09:36:12;2.65;;;1.50;;
17650;SDS011;26663;59.302;18.082;2022-08-04T09:39:31;5.60;;;1.40;;
17650;SDS011;26663;59.302;18.082;2022-08-04T09:42:49;1.60;;;1.60;;
17650;SDS011;26663;59.302;18.082;2022-08-04T09:46:05;6.45;;;1.63;;
17650;SDS011;26663;59.302;18.082;2022-08-04T09:49:18;4.03;;;2.00;;
17650;SDS011;26663;59.302;18.082;2022-08-04T09:52:31;5.15;;;1.80;;
17650;SDS011;26663;59.302;18.082;2022-08-04T09:55:51;2.63;;;2.00;;
17650;SDS011;26663;59.302;18.082;2022-08-04T09:59:10;5.68;;;1.90;;
17650;SDS011;26663;59.302;18.082;2022-08-04T10:02:23;3.47;;;1.70;;
17650;SDS011;26663;59.302;18.082;2022-08-04T10:05:37;3.67;;;1.73;;
17650;SDS011;26663;59.302;18.082;2022-08-04T10:08:55;4.20;;;1.70;;
17650;SDS011;26663;59.302;18.082;2022-08-04T10:12:14;4.88;;;1.73;;
17650;SDS011;26663;59.302;18.082;2022-08-04T10:15:35;1.80;;;1.73;;
17650;SDS011;26663;59.302;18.082;2022-08-04T10:18:54;4.50;;;1.70;;
17650;SDS011;26663;59.302;18.082;2022-08-04T10:22:12;5.30;;;1.90;;
17650;SDS011;26663;59.302;18.082;2022-08-04T10:25:37;2.45;;;2.00;;
17650;SDS011;26663;59.302;18.082;2022-08-04T10:29:12;2.35;;;1.80;;
17650;SDS011;26663;59.302;18.082;2022-08-04T10:32:22;1.70;;;1.60;;
17650;SDS011;26663;59.302;18.082;2022-08-04T10:35:32;2.15;;;1.73;;
17650;SDS011;26663;59.302;18.082;2022-08-04T10:38:43;3.92;;;1.90;;
17650;SDS011;26663;59.302;18.082;2022-08-04T10:42:02;2.35;;;1.70;;
17650;SDS011;26663;59.302;18.082;2022-08-04T10:45:17;3.42;;;1.70;;
17650;SDS011;26663;59.302;18.082;2022-08-04T10:48:29;2.20;;;1.80;;
17650;SDS011;26663;59.302;18.082;2022-08-04T10:51:43;3.58;;;1.63;;
17650;SDS011;26663;59.302;18.082;2022-08-04T10:55:05;1.75;;;1.65;;
17650;SDS011;26663;59.302;18.082;2022-08-04T10:58:17;1.92;;;1.83;;
17650;SDS011;26663;59.302;18.082;2022-08-04T11:01:47;1.90;;;1.58;;
17650;SDS011;26663;59.302;18.082;2022-08-04T11:05:10;2.58;;;1.95;;
17650;SDS011;26663;59.302;18.082;2022-08-04T11:08:24;4.47;;;1.52;;
17650;SDS011;26663;59.302;18.082;2022-08-04T11:11:34;1.88;;;1.77;;
17650;SDS011;26663;59.302;18.082;2022-08-04T11:15:03;1.83;;;1.73;;
17650;SDS011;26663;59.302;18.082;2022-08-04T11:18:25;2.55;;;1.60;;
17650;SDS011;26663;59.302;18.082;2022-08-04T11:21:42;1.65;;;1.55;;
17650;SDS011;26663;59.302;18.082;2022-08-04T11:24:54;2.35;;;1.65;;
17650;SDS011;26663;59.302;18.082;2022-08-04T11:28:13;4.47;;;1.88;;
17650;SDS011;26663;59.302;18.082;2022-08-04T11:31:27;1.73;;;1.63;;
17650;SDS011;26663;59.302;18.082;2022-08-04T11:34:37;1.80;;;1.70;;
17650;SDS011;26663;59.302;18.082;2022-08-04T11:37:56;2.65;;;1.63;;
17650;SDS011;26663;59.302;18.082;2022-08-04T11:41:10;1.83;;;1.73;;
17650;SDS011;26663;59.302;18.082;2022-08-04T11:44:25;1.90;;;1.90;;
17650;SDS011;26663;59.302;18.082;2022-08-04T11:47:42;4.75;;;1.80;;
17650;SDS011;26663;59.302;18.082;2022-08-04T11:50:54;3.70;;;2.30;;
17650;SDS011;26663;59.302;18.082;2022-08-04T11:53:59;1.90;;;1.77;;
17650;SDS011;26663;59.302;18.082;2022-08-04T11:57:05;3.00;;;1.70;;
17650;SDS011;26663;59.302;18.082;2022-08-04T12:00:13;2.95;;;2.05;;
17650;SDS011;26663;59.302;18.082;2022-08-04T12:03:23;5.43;;;2.00;;
17650;SDS011;26663;59.302;18.082;2022-08-04T12:06:43;1.90;;;1.80;;
17650;SDS011;26663;59.302;18.082;2022-08-04T12:10:18;1.70;;;1.70;;
17650;SDS011;26663;59.302;18.082;2022-08-04T12:13:45;2.15;;;1.95;;
17650;SDS011;26663;59.302;18.082;2022-08-04T12:17:09;3.10;;;1.90;;
17650;SDS011;26663;59.302;18.082;2022-08-04T12:20:18;2.03;;;1.80;;
17650;SDS011;26663;59.302;18.082;2022-08-04T12:23:43;3.28;;;1.70;;
17650;SDS011;26663;59.302;18.082;2022-08-04T12:26:49;5.97;;;1.80;;
17650;SDS011;26663;59.302;18.082;2022-08-04T12:29:57;2.17;;;2.08;;
17650;SDS011;26663;59.302;18.082;2022-08-04T12:33:22;6.20;;;1.90;;
17650;SDS011;26663;59.302;18.082;2022-08-04T12:36:54;1.70;;;1.58;;
17650;SDS011;26663;59.302;18.082;2022-08-04T12:40:12;2.00;;;1.73;;
17650;SDS011;26663;59.302;18.082;2022-08-04T12:43:34;5.18;;;1.70;;
17650;SDS011;26663;59.302;18.082;2022-08-04T12:46:43;3.90;;;1.90;;
17650;SDS011;26663;59.302;18.082;2022-08-04T12:49:50;4.68;;;1.67;;
17650;SDS011;26663;59.302;18.082;2022-08-04T12:53:10;1.75;;;1.65;;
17650;SDS011;26663;59.302;18.082;2022-08-04T12:56:35;6.18;;;1.90;;
17650;SDS011;26663;59.302;18.082;2022-08-04T12:59:41;1.70;;;1.60;;
17650;SDS011;26663;59.302;18.082;2022-08-04T13:02:59;4.30;;;1.70;;
17650;SDS011;26663;59.302;18.082;2022-08-04T13:06:13;2.10;;;2.00;;
17650;SDS011;26663;59.302;18.082;2022-08-04T13:09:27;2.67;;;1.80;;
17650;SDS011;26663;59.302;18.082;2022-08-04T13:12:37;1.60;;;1.60;;
17650;SDS011;26663;59.302;18.082;2022-08-04T13:15:53;4.55;;;1.70;;
17650;SDS011;26663;59.302;18.082;2022-08-04T13:19:00;2.67;;;1.60;;
17650;SDS011;26663;59.302;18.082;2022-08-04T13:22:09;3.42;;;1.45;;
17650;SDS011;26663;59.302;18.082;2022-08-04T13:25:18;2.22;;;1.65;;
17650;SDS011;26663;59.302;18.082;2022-08-04T13:28:45;2.50;;;1.77;;
17650;SDS011;26663;59.302;18.082;2022-08-04T13:31:53;8.15;;;2.20;;
17650;SDS011;26663;59.302;18.082;2022-08-04T13:34:59;2.03;;;1.70;;
17650;SDS011;26663;59.302;18.082;2022-08-04T13:38:06;2.85;;;1.80;;
17650;SDS011;26663;59.302;18.082;2022-08-04T13:41:12;2.67;;;1.67;;
17650;SDS011;26663;59.302;18.082;2022-08-04T13:44:20;2.40;;;1.85;;
17650;SDS011;26663;59.302;18.082;2022-08-04T13:47:28;2.15;;;2.10;;
17650;SDS011;26663;59.302;18.082;2022-08-04T13:50:36;2.05;;;1.90;;
17650;SDS011;26663;59.302;18.082;2022-08-04T13:53:42;3.13;;;1.85;;
17650;SDS011;26663;59.302;18.082;2022-08-04T13:56:48;1.95;;;1.85;;
17650;SDS011;26663;59.302;18.082;2022-08-04T13:59:58;2.78;;;1.90;;
17650;SDS011;26663;59.302;18.082;2022-08-04T14:03:12;2.63;;;1.80;;
17650;SDS011;26663;59.302;18.082;2022-08-04T14:06:27;3.33;;;1.90;;
17650;SDS011;26663;59.302;18.082;2022-08-04T14:09:37;4.80;;;1.70;;
17650;SDS011;26663;59.302;18.082;2022-08-04T14:13:04;1.95;;;1.85;;
17650;SDS011;26663;59.302;18.082;2022-08-04T14:16:14;3.20;;;1.92;;
17650;SDS011;26663;59.302;18.082;2022-08-04T14:19:22;3.95;;;2.67;;
17650;SDS011;26663;59.302;18.082;2022-08-04T14:22:34;2.00;;;2.00;;
17650;SDS011;26663;59.302;18.082;2022-08-04T14:25:39;7.28;;;2.33;;
17650;SDS011;26663;59.302;18.082;2022-08-04T14:28:44;16.92;;;2.80;;
17650;SDS011;26663;59.302;18.082;2022-08-04T14:32:11;7.43;;;2.35;;
17650;SDS011;26663;59.302;18.082;2022-08-04T14:35:23;3.08;;;2.50;;
17650;SDS011;26663;59.302;18.082;2022-08-04T14:38:50;2.72;;;2.30;;
17650;SDS011;26663;59.302;18.082;2022-08-04T14:42:02;3.47;;;2.40;;
17650;SDS011;26663;59.302;18.082;2022-08-04T14:45:09;3.80;;;2.30;;
17650;SDS011;26663;59.302;18.082;2022-08-04T14:48:16;2.38;;;2.30;;
17650;SDS011;26663;59.302;18.082;2022-08-04T14:51:22;3.08;;;2.45;;
17650;SDS011;26663;59.302;18.082;2022-08-04T14:54:38;3.10;;;2.40;;
17650;SDS011;26663;59.302;18.082;2022-08-04T14:57:44;3.42;;;2.15;;
17650;SDS011;26663;59.302;18.082;2022-08-04T15:01:11;4.72;;;2.60;;
17650;SDS011;26663;59.302;18.082;2022-08-04T15:04:20;3.60;;;2.15;;
17650;SDS011;26663;59.302;18.082;2022-08-04T15:07:27;2.40;;;2.20;;
17650;SDS011;26663;59.302;18.082;2022-08-04T15:10:33;2.28;;;1.98;;
17650;SDS011;26663;59.302;18.082;2022-08-04T15:13:38;3.22;;;2.50;;
17650;SDS011;26663;59.302;18.082;2022-08-04T15:16:44;5.18;;;2.13;;
17650;SDS011;26663;59.302;18.082;2022-08-04T15:19:58;7.05;;;2.22;;
17650;SDS011;26663;59.302;18.082;2022-08-04T15:23:04;4.07;;;2.10;;
17650;SDS011;26663;59.302;18.082;2022-08-04T15:26:14;1.92;;;1.90;;
17650;SDS011;26663;59.302;18.082;2022-08-04T15:29:22;5.97;;;2.10;;
17650;SDS011;26663;59.302;18.082;2022-08-04T15:33:00;2.10;;;2.00;;
17650;SDS011;26663;59.302;18.082;2022-08-04T15:36:12;2.17;;;2.05;;
17650;SDS011;26663;59.302;18.082;2022-08-04T15:39:23;1.95;;;1.88;;
17650;SDS011;26663;59.302;18.082;2022-08-04T15:42:37;4.80;;;2.25;;
17650;SDS011;26663;59.302;18.082;2022-08-04T15:45:50;8.43;;;2.03;;
17650;SDS011;26663;59.302;18.082;2022-08-04T15:49:17;2.58;;;1.70;;
17650;SDS011;26663;59.302;18.082;2022-08-04T15:52:24;2.38;;;1.90;;
17650;SDS011;26663;59.302;18.082;2022-08-04T15:55:35;2.03;;;1.92;;
17650;SDS011;26663;59.302;18.082;2022-08-04T15:58:47;4.85;;;2.13;;
17650;SDS011;26663;59.302;18.082;2022-08-04T16:05:33;2.63;;;1.90;;
17650;SDS011;26663;59.302;18.082;2022-08-04T16:08:56;2.42;;;2.05;;
17650;SDS011;26663;59.302;18.082;2022-08-04T16:12:03;2.28;;;2.17;;
17650;SDS011;26663;59.302;18.082;2022-08-04T16:18:50;2.90;;;2.20;;
17650;SDS011;26663;59.302;18.082;2022-08-04T16:21:56;3.92;;;2.38;;
17650;SDS011;26663;59.302;18.082;2022-08-04T16:25:07;2.72;;;1.90;;
17650;SDS011;26663;59.302;18.082;2022-08-04T16:31:54;4.13;;;1.95;;
17650;SDS011;26663;59.302;18.082;2022-08-04T16:35:25;2.22;;;1.77;;
17650;SDS011;26663;59.302;18.082;2022-08-04T16:38:31;2.08;;;1.85;;
17650;SDS011;26663;59.302;18.082;2022-08-04T16:41:39;3.50;;;1.58;;
17650;SDS011;26663;59.302;18.082;2022-08-04T16:44:57;3.80;;;1.77;;
17650;SDS011;26663;59.302;18.082;2022-08-04T16:48:05;2.10;;;1.58;;
17650;SDS011;26663;59.302;18.082;2022-08-04T16:51:11;2.25;;;1.63;;
17650;SDS011;26663;59.302;18.082;2022-08-04T16:54:16;4.72;;;1.75;;
17650;SDS011;26663;59.302;18.082;2022-08-04T16:57:23;2.75;;;1.83;;
17650;SDS011;26663;59.302;18.082;2022-08-04T17:00:30;2.55;;;1.80;;
17650;SDS011;26663;59.302;18.082;2022-08-04T17:03:38;1.58;;;1.58;;
17650;SDS011;26663;59.302;18.082;2022-08-04T17:06:44;6.15;;;2.03;;
17650;SDS011;26663;59.302;18.082;2022-08-04T17:09:50;3.63;;;1.80;;
17650;SDS011;26663;59.302;18.082;2022-08-04T17:12:57;3.42;;;2.20;;
17650;SDS011;26663;59.302;18.082;2022-08-04T17:16:22;7.22;;;2.22;;
17650;SDS011;26663;59.302;18.082;2022-08-04T17:19:27;5.43;;;2.10;;
17650;SDS011;26663;59.302;18.082;2022-08-04T17:22:32;3.22;;;2.15;;
17650;SDS011;26663;59.302;18.082;2022-08-04T17:25:39;3.38;;;2.20;;
17650;SDS011;26663;59.302;18.082;2022-08-04T17:28:57;7.72;;;2.75;;
17650;SDS011;26663;59.302;18.082;2022-08-04T17:32:04;7.32;;;2.53;;
17650;SDS011;26663;59.302;18.082;2022-08-04T17:35:11;3.08;;;2.72;;
17650;SDS011;26663;59.302;18.082;2022-08-04T17:38:16;6.63;;;2.85;;
17650;SDS011;26663;59.302;18.082;2022-08-04T17:41:22;5.15;;;2.67;;
17650;SDS011;26663;59.302;18.082;2022-08-04T17:44:42;9.88;;;3.30;;
17650;SDS011;26663;59.302;18.082;2022-08-04T17:47:48;6.57;;;3.22;;
17650;SDS011;26663;59.302;18.082;2022-08-04T17:50:53;4.90;;;2.90;;
17650;SDS011;26663;59.302;18.082;2022-08-04T17:53:59;3.42;;;3.20;;
17650;SDS011;26663;59.302;18.082;2022-08-04T17:57:12;10.98;;;3.08;;
17650;SDS011;26663;59.302;18.082;2022-08-04T18:00:25;5.47;;;3.00;;
17650;SDS011;26663;59.302;18.082;2022-08-04T18:03:42;8.13;;;3.08;;
17650;SDS011;26663;59.302;18.082;2022-08-04T18:06:55;11.05;;;3.30;;
17650;SDS011;26663;59.302;18.082;2022-08-04T18:10:02;5.63;;;2.88;;
17650;SDS011;26663;59.302;18.082;2022-08-04T18:13:28;9.05;;;3.42;;
17650;SDS011;26663;59.302;18.082;2022-08-04T18:16:45;8.98;;;3.55;;
17650;SDS011;26663;59.302;18.082;2022-08-04T18:19:56;7.55;;;3.63;;
17650;SDS011;26663;59.302;18.082;2022-08-04T18:23:04;5.90;;;3.03;;
17650;SDS011;26663;59.302;18.082;2022-08-04T18:26:12;10.25;;;3.20;;
17650;SDS011;26663;59.302;18.082;2022-08-04T18:29:17;7.18;;;3.20;;
17650;SDS011;26663;59.302;18.082;2022-08-04T18:32:35;6.25;;;3.28;;
17650;SDS011;26663;59.302;18.082;2022-08-04T18:36:00;4.22;;;3.30;;
17650;SDS011;26663;59.302;18.082;2022-08-04T18:39:25;5.03;;;3.20;;
17650;SDS011;26663;59.302;18.082;2022-08-04T18:42:52;6.03;;;3.30;;
17650;SDS011;26663;59.302;18.082;2022-08-04T18:45:58;7.45;;;3.90;;
17650;SDS011;26663;59.302;18.082;2022-08-04T18:49:05;8.77;;;3.63;;
17650;SDS011;26663;59.302;18.082;2022-08-04T18:52:32;6.13;;;3.38;;
17650;SDS011;26663;59.302;18.082;2022-08-04T18:55:47;6.28;;;4.35;;
17650;SDS011;26663;59.302;18.082;2022-08-04T18:59:00;12.25;;;4.97;;
17650;SDS011;26663;59.302;18.082;2022-08-04T19:02:13;6.47;;;4.00;;
17650;SDS011;26663;59.302;18.082;2022-08-04T19:05:21;6.43;;;3.15;;
17650;SDS011;26663;59.302;18.082;2022-08-04T19:08:40;8.18;;;3.60;;
17650;SDS011;26663;59.302;18.082;2022-08-04T19:11:47;6.95;;;3.60;;
17650;SDS011;26663;59.302;18.082;2022-08-04T19:14:57;6.28;;;4.00;;
17650;SDS011;26663;59.302;18.082;2022-08-04T19:18:13;6.72;;;4.20;;
17650;SDS011;26663;59.302;18.082;2022-08-04T19:21:22;6.32;;;3.85;;
17650;SDS011;26663;59.302;18.082;2022-08-04T19:24:47;4.22;;;3.70;;
17650;SDS011;26663;59.302;18.082;2022-08-04T19:27:52;5.40;;;3.88;;
17650;SDS011;26663;59.302;18.082;2022-08-04T19:30:58;5.18;;;4.15;;
17650;SDS011;26663;59.302;18.082;2022-08-04T19:34:03;4.78;;;4.38;;
17650;SDS011;26663;59.302;18.082;2022-08-04T19:37:10;5.90;;;4.70;;
17650;SDS011;26663;59.302;18.082;2022-08-04T19:40:35;5.00;;;4.60;;
17650;SDS011;26663;59.302;18.082;2022-08-04T19:43:53;6.72;;;4.93;;
17650;SDS011;26663;59.302;18.082;2022-08-04T19:46:58;12.05;;;4.50;;
17650;SDS011;26663;59.302;18.082;2022-08-04T19:50:23;6.68;;;5.15;;
17650;SDS011;26663;59.302;18.082;2022-08-04T19:53:31;8.65;;;5.00;;
17650;SDS011;26663;59.302;18.082;2022-08-04T19:56:40;7.43;;;5.00;;
17650;SDS011;26663;59.302;18.082;2022-08-04T19:59:50;5.45;;;5.15;;
17650;SDS011;26663;59.302;18.082;2022-08-04T20:02:57;5.50;;;5.07;;
17650;SDS011;26663;59.302;18.082;2022-08-04T20:06:02;8.48;;;5.20;;